createdAt,value
2018-03-29T00:00:08.248Z,100646.34
2018-03-29T00:02:35.847Z,100642.84
2018-03-29T00:05:03.458Z,100647.80
2018-03-29T00:07:31.485Z,100640.02
2018-03-29T00:09:59.700Z,100638.47
2018-03-29T00:12:27.286Z,100642.02
2018-03-29T00:14:54.866Z,100638.31
2018-03-29T00:17:24.315Z,100640.23
2018-03-29T00:19:52.482Z,100645.57
2018-03-29T00:22:20.065Z,100654.03
2018-03-29T00:24:48.393Z,100657.25
2018-03-29T00:27:15.945Z,100649.93
2018-03-29T00:29:44.810Z,100648.58
2018-03-29T00:32:13.251Z,100652.59
2018-03-29T00:34:40.869Z,100648.30
2018-03-29T00:37:08.450Z,100648.14
2018-03-29T00:39:36.033Z,100647.88
2018-03-29T00:42:03.645Z,100641.91
2018-03-29T00:44:31.239Z,100647.27
2018-03-29T00:46:58.873Z,100640.31
2018-03-29T00:49:26.502Z,100645.17
2018-03-29T00:51:54.687Z,100642.24
2018-03-29T00:54:22.432Z,100643.28
2018-03-29T00:56:50.034Z,100639.94
2018-03-29T00:59:18.143Z,100640.92
2018-03-29T01:01:46.336Z,100636.31
2018-03-29T01:04:14.020Z,100651.95
2018-03-29T01:06:42.537Z,100646.87
2018-03-29T01:09:10.893Z,100644.56
2018-03-29T01:11:38.484Z,100636.91
2018-03-29T01:14:06.046Z,100642.33
2018-03-29T01:16:33.668Z,100636.89
2018-03-29T01:19:02.572Z,100640.95
2018-03-29T01:21:30.152Z,100635.73
2018-03-29T01:23:58.307Z,100641.05
2018-03-29T01:26:25.867Z,100634.38
2018-03-29T01:28:53.453Z,100631.66
2018-03-29T01:31:21.541Z,100624.25
2018-03-29T01:33:49.083Z,100614.00
2018-03-29T01:36:16.654Z,100608.22
2018-03-29T01:38:44.258Z,100604.00
2018-03-29T01:41:12.591Z,100599.68
2018-03-29T01:43:40.142Z,100604.26
2018-03-29T01:46:07.782Z,100600.02
2018-03-29T01:48:35.345Z,100598.77
2018-03-29T01:51:03.600Z,100597.93
2018-03-29T01:53:31.184Z,100598.91
2018-03-29T01:55:58.785Z,100599.19
2018-03-29T01:58:27.137Z,100601.28
2018-03-29T02:00:55.256Z,100592.46
2018-03-29T02:03:23.050Z,100602.70
2018-03-29T02:05:51.192Z,100600.47
2018-03-29T02:08:19.325Z,100597.39
2018-03-29T02:10:47.457Z,100596.59
2018-03-29T02:13:15.021Z,100597.12
2018-03-29T02:15:43.095Z,100595.86
2018-03-29T02:18:11.456Z,100592.56
2018-03-29T02:20:39.307Z,100594.90
2018-03-29T02:23:07.445Z,100593.32
2018-03-29T02:25:35.026Z,100597.42
2018-03-29T02:28:02.647Z,100597.98
2018-03-29T02:30:30.577Z,100596.78
2018-03-29T02:32:58.142Z,100595.86
2018-03-29T02:35:25.687Z,100591.80
2018-03-29T02:37:53.489Z,100591.53
2018-03-29T02:40:21.049Z,100590.98
2018-03-29T02:42:48.615Z,100590.19
2018-03-29T02:45:16.254Z,100587.63
2018-03-29T02:47:44.589Z,100586.37
2018-03-29T02:50:13.534Z,100589.11
2018-03-29T02:52:41.130Z,100585.34
2018-03-29T02:55:08.679Z,100582.83
2018-03-29T02:57:36.266Z,100585.86
2018-03-29T03:00:04.889Z,100586.28
2018-03-29T03:02:33.126Z,100584.04
2018-03-29T03:05:01.245Z,100585.02
2018-03-29T03:07:28.821Z,100581.99
2018-03-29T03:09:57.132Z,100578.64
2018-03-29T03:12:24.809Z,100582.19
2018-03-29T03:14:52.474Z,100577.85
2018-03-29T03:17:20.736Z,100580.19
2018-03-29T03:19:48.857Z,100578.88
2018-03-29T03:22:16.410Z,100575.95
2018-03-29T03:24:44.632Z,100574.70
2018-03-29T03:27:12.524Z,100571.28
2018-03-29T03:29:41.642Z,100572.22
2018-03-29T03:32:09.214Z,100572.27
2018-03-29T03:34:36.773Z,100570.64
2018-03-29T03:37:04.418Z,100572.83
2018-03-29T03:39:31.971Z,100566.40
2018-03-29T03:41:59.546Z,100579.54
2018-03-29T03:44:27.133Z,100580.70
2018-03-29T03:46:54.693Z,100573.30
2018-03-29T03:49:22.461Z,100574.18
2018-03-29T03:51:51.315Z,100581.12
2018-03-29T03:54:18.897Z,100573.44
2018-03-29T03:56:46.445Z,100581.31
2018-03-29T03:59:15.012Z,100579.13
2018-03-29T04:01:43.589Z,100577.77
2018-03-29T04:04:12.057Z,100568.17
2018-03-29T04:06:39.659Z,100576.32
2018-03-29T04:09:08.332Z,100576.55
2018-03-29T04:11:35.897Z,100577.30
2018-03-29T04:14:03.483Z,100574.59
2018-03-29T04:16:31.062Z,100585.36
2018-03-29T04:18:59.217Z,100580.05
2018-03-29T04:21:26.764Z,100580.88
2018-03-29T04:23:54.981Z,100574.73
2018-03-29T04:26:23.625Z,100580.32
2018-03-29T04:28:51.843Z,100579.38
2018-03-29T04:31:25.377Z,100577.24
2018-03-29T04:33:53.094Z,100577.20
2018-03-29T04:36:20.663Z,100575.74
2018-03-29T04:38:48.280Z,100576.48
2018-03-29T04:41:15.829Z,100574.06
2018-03-29T04:43:43.730Z,100577.13
2018-03-29T04:46:12.446Z,100575.91
2018-03-29T04:48:40.004Z,100576.92
2018-03-29T04:51:08.284Z,100572.77
2018-03-29T04:53:35.898Z,100575.42
2018-03-29T04:56:03.539Z,100575.95
2018-03-29T04:58:31.719Z,100574.36
2018-03-29T05:00:59.991Z,100576.27
2018-03-29T05:03:28.395Z,100574.71
2018-03-29T05:05:55.993Z,100582.77
2018-03-29T05:08:24.828Z,100580.74
2018-03-29T05:10:52.454Z,100579.98
2018-03-29T05:13:20.136Z,100573.58
2018-03-29T05:15:47.818Z,100569.69
2018-03-29T05:18:16.105Z,100571.58
2018-03-29T05:20:44.680Z,100563.44
2018-03-29T05:23:13.633Z,100567.95
2018-03-29T05:25:42.426Z,100567.66
2018-03-29T05:28:10.072Z,100569.59
2018-03-29T05:30:38.697Z,100559.63
2018-03-29T05:33:06.326Z,100566.64
2018-03-29T05:35:33.944Z,100567.59
2018-03-29T05:38:01.601Z,100571.33
2018-03-29T05:40:29.268Z,100568.94
2018-03-29T05:42:57.025Z,100571.40
2018-03-29T05:45:25.507Z,100568.95
2018-03-29T05:47:53.876Z,100570.38
2018-03-29T05:50:22.456Z,100571.43
2018-03-29T05:52:50.320Z,100570.78
2018-03-29T05:55:19.132Z,100574.40
2018-03-29T05:57:46.744Z,100571.16
2018-03-29T06:00:15.039Z,100569.24
2018-03-29T06:02:45.878Z,100569.75
2018-03-29T06:05:14.363Z,100572.98
2018-03-29T06:07:42.386Z,100570.45
2018-03-29T06:10:10.831Z,100573.30
2018-03-29T06:12:38.669Z,100574.20
2018-03-29T06:15:12.033Z,100574.09
2018-03-29T06:17:43.182Z,100580.44
2018-03-29T06:20:13.505Z,100576.55
2018-03-29T06:22:43.425Z,100582.82
2018-03-29T06:25:15.428Z,100583.03
2018-03-29T06:27:43.415Z,100579.63
2018-03-29T06:30:12.199Z,100581.82
2018-03-29T06:32:39.827Z,100582.14
2018-03-29T06:35:07.676Z,100582.91
2018-03-29T06:37:35.753Z,100581.34
2018-03-29T06:40:03.719Z,100590.50
2018-03-29T06:42:31.896Z,100591.70
2018-03-29T06:44:59.758Z,100572.27
2018-03-29T06:47:27.723Z,100577.36
2018-03-29T06:49:56.727Z,100572.44
2018-03-29T06:52:24.796Z,100569.00
2018-03-29T06:54:53.415Z,100570.91
2018-03-29T06:57:21.183Z,100579.11
2018-03-29T06:59:49.635Z,100570.62
2018-03-29T07:02:17.483Z,100571.23
2018-03-29T07:04:46.092Z,100576.67
2018-03-29T07:07:13.960Z,100579.57
2018-03-29T07:09:42.626Z,100578.48
2018-03-29T07:12:10.342Z,100567.77
2018-03-29T07:14:38.002Z,100572.54
2018-03-29T07:17:06.226Z,100573.77
2018-03-29T07:19:34.698Z,100569.62
2018-03-29T07:22:02.496Z,100575.72
2018-03-29T07:24:31.089Z,100575.84
2018-03-29T07:26:58.778Z,100573.78
2018-03-29T07:29:27.095Z,100577.28
2018-03-29T07:31:55.061Z,100573.89
2018-03-29T07:34:23.393Z,100562.83
2018-03-29T07:36:51.531Z,100572.34
2018-03-29T07:39:19.091Z,100575.42
2018-03-29T07:41:46.715Z,100565.40
2018-03-29T07:44:14.344Z,100570.86
2018-03-29T07:46:41.971Z,100562.08
2018-03-29T07:49:09.642Z,100565.41
2018-03-29T07:51:37.857Z,100566.84
2018-03-29T07:54:05.544Z,100566.02
2018-03-29T07:56:33.171Z,100561.08
2018-03-29T07:59:01.420Z,100562.61
2018-03-29T08:01:29.825Z,100562.03
2018-03-29T08:03:58.001Z,100565.62
2018-03-29T08:06:25.577Z,100555.28
2018-03-29T08:08:53.627Z,100568.53
2018-03-29T08:11:21.272Z,100540.17
2018-03-29T08:13:48.859Z,100571.73
2018-03-29T08:16:16.446Z,100572.67
2018-03-29T08:18:44.754Z,100571.20
2018-03-29T08:21:12.869Z,100579.14
2018-03-29T08:23:43.340Z,100569.97
2018-03-29T08:26:10.944Z,100568.27
2018-03-29T08:28:38.501Z,100573.88
2018-03-29T08:31:06.638Z,100575.20
2018-03-29T08:33:34.225Z,100571.66
2018-03-29T08:36:01.756Z,100573.44
2018-03-29T08:38:29.605Z,100579.02
2018-03-29T08:40:57.146Z,100582.84
2018-03-29T08:43:24.781Z,100584.70
2018-03-29T08:45:52.508Z,100572.49
2018-03-29T08:48:20.563Z,100578.47
2018-03-29T08:50:48.620Z,100585.56
2018-03-29T08:53:16.144Z,100579.55
2018-03-29T08:55:44.030Z,100588.34
2018-03-29T08:58:11.747Z,100578.92
2018-03-29T09:00:41.045Z,100582.19
2018-03-29T09:03:09.637Z,100576.60
2018-03-29T09:05:37.225Z,100582.36
2018-03-29T09:08:04.761Z,100580.15
2018-03-29T09:10:33.283Z,100573.30
2018-03-29T09:13:00.858Z,100578.80
2018-03-29T09:15:28.455Z,100582.50
2018-03-29T09:17:56.903Z,100569.08
2018-03-29T09:20:25.066Z,100583.34
2018-03-29T09:22:52.642Z,100582.73
2018-03-29T09:25:20.208Z,100592.56
2018-03-29T09:27:47.785Z,100593.73
2018-03-29T09:30:16.145Z,100587.55
2018-03-29T09:32:44.506Z,100591.79
2018-03-29T09:35:12.742Z,100578.16
2018-03-29T09:37:40.316Z,100581.16
2018-03-29T09:40:07.850Z,100585.78
2018-03-29T09:42:35.372Z,100584.73
2018-03-29T09:45:03.036Z,100587.48
2018-03-29T09:47:31.193Z,100586.53
2018-03-29T09:49:59.550Z,100577.23
2018-03-29T09:52:27.084Z,100577.42
2018-03-29T09:54:55.621Z,100562.58
2018-03-29T09:57:23.736Z,100563.93
2018-03-29T09:59:51.915Z,100570.42
2018-03-29T10:02:19.960Z,100564.97
2018-03-29T10:04:53.873Z,100574.08
2018-03-29T10:07:24.335Z,100562.47
2018-03-29T10:09:52.378Z,100571.17
2018-03-29T10:12:19.932Z,100570.10
2018-03-29T10:14:47.480Z,100571.34
2018-03-29T10:17:16.008Z,100571.20
2018-03-29T10:19:44.488Z,100574.92
2018-03-29T10:22:13.387Z,100585.48
2018-03-29T10:24:40.916Z,100575.53
2018-03-29T10:27:08.487Z,100581.91
2018-03-29T10:29:36.904Z,100566.31
2018-03-29T10:32:04.436Z,100563.07
2018-03-29T10:34:31.956Z,100576.01
2018-03-29T10:36:59.516Z,100572.17
2018-03-29T10:39:27.048Z,100566.29
2018-03-29T10:41:55.007Z,100569.00
2018-03-29T10:44:23.392Z,100555.24
2018-03-29T10:46:50.958Z,100552.69
2018-03-29T10:49:18.477Z,100547.16
2018-03-29T10:51:46.745Z,100548.24
2018-03-29T10:54:14.285Z,100552.00
2018-03-29T10:56:42.386Z,100539.08
2018-03-29T10:59:10.881Z,100544.05
2018-03-29T11:01:39.063Z,100554.56
2018-03-29T11:04:07.185Z,100554.61
2018-03-29T11:06:34.720Z,100556.08
2018-03-29T11:09:03.260Z,100550.72
2018-03-29T11:11:30.823Z,100553.98
2018-03-29T11:13:58.353Z,100554.17
2018-03-29T11:16:25.933Z,100545.67
2018-03-29T11:18:54.116Z,100541.08
2018-03-29T11:21:22.423Z,100536.66
2018-03-29T11:23:49.952Z,100537.63
2018-03-29T11:26:17.484Z,100546.25
2018-03-29T11:28:45.045Z,100525.31
2018-03-29T11:31:13.987Z,100536.63
2018-03-29T11:33:41.555Z,100528.58
2018-03-29T11:36:09.140Z,100527.98
2018-03-29T11:38:36.696Z,100509.16
2018-03-29T11:41:04.744Z,100518.69
2018-03-29T11:43:32.292Z,100527.31
2018-03-29T11:45:59.831Z,100516.52
2018-03-29T11:48:27.431Z,100528.30
2018-03-29T11:50:55.665Z,100521.13
2018-03-29T11:53:23.410Z,100525.86
2018-03-29T11:55:51.008Z,100514.80
2018-03-29T11:58:19.452Z,100517.27
2018-03-29T12:00:47.673Z,100504.95
2018-03-29T12:03:15.998Z,100507.85
2018-03-29T12:05:44.441Z,100506.59
2018-03-29T12:08:12.647Z,100528.34
2018-03-29T12:10:40.925Z,100506.91
2018-03-29T12:13:08.542Z,100516.70
2018-03-29T12:15:36.075Z,100506.70
2018-03-29T12:18:05.318Z,100505.31
2018-03-29T12:20:32.854Z,100485.16
2018-03-29T12:23:01.108Z,100508.52
2018-03-29T12:25:28.630Z,100497.66
2018-03-29T12:27:56.154Z,100474.34
2018-03-29T12:30:24.353Z,100492.55
2018-03-29T12:32:52.997Z,100485.19
2018-03-29T12:35:20.530Z,100480.08
2018-03-29T12:37:48.109Z,100476.66
2018-03-29T12:40:16.281Z,100478.47
2018-03-29T12:42:43.861Z,100468.06
2018-03-29T12:45:11.718Z,100471.67
2018-03-29T12:50:06.299Z,100470.79
2018-03-29T12:52:33.890Z,100461.73
2018-03-29T12:55:13.318Z,100453.47
2018-03-29T12:57:53.049Z,100465.08
2018-03-29T13:00:21.235Z,100464.53
2018-03-29T13:02:49.812Z,100464.66
2018-03-29T13:05:17.382Z,100471.13
2018-03-29T13:07:44.929Z,100470.94
2018-03-29T13:10:12.900Z,100478.19
2018-03-29T13:12:40.534Z,100463.31
2018-03-29T13:15:08.101Z,100472.95
2018-03-29T13:17:36.607Z,100463.34
2018-03-29T13:20:04.670Z,100448.24
2018-03-29T13:26:03.087Z,100448.98
2018-03-29T13:28:31.397Z,100452.80
2018-03-29T13:30:59.398Z,100456.63
2018-03-29T13:33:26.968Z,100437.20
2018-03-29T13:35:54.620Z,100433.20
2018-03-29T13:38:23.433Z,100441.71
2018-03-29T13:40:50.964Z,100456.64
2018-03-29T13:43:18.560Z,100436.91
2018-03-29T13:45:46.228Z,100438.39
2018-03-29T13:48:13.923Z,100438.72
2018-03-29T13:50:42.364Z,100429.25
2018-03-29T13:53:09.923Z,100441.23
2018-03-29T13:55:37.470Z,100441.38
2018-03-29T13:58:05.038Z,100425.09
2018-03-29T14:00:33.366Z,100432.80
2018-03-29T14:03:01.598Z,100416.09
2018-03-29T14:05:29.202Z,100429.09
2018-03-29T14:07:56.755Z,100433.59
2018-03-29T14:10:24.882Z,100430.64
2018-03-29T14:12:52.478Z,100433.03
2018-03-29T14:15:20.031Z,100433.11
2018-03-29T14:17:48.091Z,100435.29
2018-03-29T14:20:16.432Z,100431.77
2018-03-29T14:22:44.680Z,100423.20
2018-03-29T14:25:13.430Z,100439.80
2018-03-29T14:27:40.969Z,100415.50
2018-03-29T14:30:09.302Z,100427.89
2018-03-29T14:32:37.736Z,100420.78
2018-03-29T14:35:06.008Z,100430.53
2018-03-29T14:37:33.563Z,100422.14
2018-03-29T14:40:01.124Z,100411.28
2018-03-29T14:42:28.706Z,100423.97
2018-03-29T14:44:56.262Z,100426.47
2018-03-29T14:47:24.068Z,100417.67
2018-03-29T14:49:52.437Z,100414.81
2018-03-29T14:52:20.054Z,100413.70
2018-03-29T14:54:47.614Z,100414.48
2018-03-29T14:57:15.194Z,100417.20
2018-03-29T14:59:44.456Z,100411.42
2018-03-29T15:02:12.897Z,100408.98
2018-03-29T15:04:41.003Z,100411.68
2018-03-29T15:07:08.574Z,100418.38
2018-03-29T15:09:36.849Z,100403.48
2018-03-29T15:12:04.441Z,100419.47
2018-03-29T15:14:32.003Z,100403.90
2018-03-29T15:17:01.052Z,100408.66
2018-03-29T15:19:29.420Z,100423.03
2018-03-29T15:21:57.754Z,100423.70
2018-03-29T15:24:25.740Z,100419.19
2018-03-29T15:26:53.589Z,100419.69
2018-03-29T15:29:21.897Z,100428.61
2018-03-29T15:31:50.219Z,100425.20
2018-03-29T15:34:17.777Z,100426.91
2018-03-29T15:36:45.360Z,100423.47
2018-03-29T15:39:13.642Z,100425.09
2018-03-29T15:41:43.153Z,100421.43
2018-03-29T15:44:10.752Z,100416.97
2018-03-29T15:46:38.368Z,100419.46
2018-03-29T15:49:05.959Z,100406.47
2018-03-29T15:51:34.074Z,100414.17
2018-03-29T15:54:01.632Z,100406.51
2018-03-29T15:56:29.189Z,100423.20
2018-03-29T15:58:57.492Z,100415.34
2018-03-29T16:01:25.783Z,100415.50
2018-03-29T16:03:54.550Z,100419.98
2018-03-29T16:06:22.094Z,100410.19
2018-03-29T16:08:50.767Z,100426.59
2018-03-29T16:11:18.314Z,100413.16
2018-03-29T16:13:46.028Z,100421.82
2018-03-29T16:16:14.266Z,100422.45
2018-03-29T16:18:42.979Z,100431.59
2018-03-29T16:21:10.513Z,100423.16
2018-03-29T16:23:38.849Z,100425.95
2018-03-29T16:26:06.386Z,100427.95
2018-03-29T16:28:33.916Z,100431.98
2018-03-29T16:31:01.849Z,100429.69
2018-03-29T16:33:29.409Z,100439.22
2018-03-29T16:35:57.051Z,100446.33
2018-03-29T16:38:24.684Z,100441.22
2018-03-29T16:40:52.558Z,100432.81
2018-03-29T16:43:20.143Z,100444.36
2018-03-29T16:45:47.742Z,100435.91
2018-03-29T16:48:16.488Z,100446.23
2018-03-29T16:50:44.425Z,100456.95
2018-03-29T16:53:12.205Z,100455.72
2018-03-29T16:55:39.809Z,100456.31
2018-03-29T16:58:07.447Z,100467.55
2018-03-29T17:00:35.976Z,100461.85
2018-03-29T17:03:04.442Z,100463.66
2018-03-29T17:05:32.072Z,100465.36
2018-03-29T17:07:59.671Z,100464.98
2018-03-29T17:10:28.922Z,100474.80
2018-03-29T17:12:56.630Z,100470.94
2018-03-29T17:15:24.789Z,100473.01
2018-03-29T17:17:54.211Z,100479.12
2018-03-29T17:20:23.740Z,100485.11
2018-03-29T17:22:51.785Z,100481.35
2018-03-29T17:25:19.416Z,100476.86
2018-03-29T17:27:47.725Z,100491.19
2018-03-29T17:30:15.868Z,100486.55
2018-03-29T17:32:43.756Z,100490.42
2018-03-29T17:35:11.568Z,100490.22
2018-03-29T17:37:39.157Z,100487.08
2018-03-29T17:40:06.741Z,100497.76
2018-03-29T17:42:34.392Z,100492.60
2018-03-29T17:45:02.025Z,100496.47
2018-03-29T17:47:29.610Z,100496.89
2018-03-29T17:49:57.914Z,100499.02
2018-03-29T17:52:25.500Z,100496.30
2018-03-29T17:54:54.928Z,100505.31
2018-03-29T17:57:22.782Z,100503.14
2018-03-29T17:59:51.100Z,100500.22
2018-03-29T18:02:19.261Z,100496.12
2018-03-29T18:04:47.448Z,100503.34
2018-03-29T18:07:15.000Z,100503.24
2018-03-29T18:09:43.433Z,100510.49
2018-03-29T18:12:11.062Z,100508.54
2018-03-29T18:14:38.680Z,100502.64
2018-03-29T18:17:07.343Z,100505.08
2018-03-29T18:19:35.757Z,100507.42
2018-03-29T18:22:04.103Z,100504.91
2018-03-29T18:24:32.376Z,100506.48
2018-03-29T18:27:00.109Z,100508.95
2018-03-29T18:29:28.321Z,100504.81
2018-03-29T18:31:55.961Z,100506.80
2018-03-29T18:34:23.516Z,100514.34
2018-03-29T18:36:51.130Z,100510.17
2018-03-29T18:39:18.680Z,100508.63
2018-03-29T18:41:46.688Z,100514.49
2018-03-29T18:44:14.302Z,100505.93
2018-03-29T18:46:42.487Z,100515.26
2018-03-29T18:49:10.132Z,100513.72
2018-03-29T18:51:38.504Z,100517.02
2018-03-29T18:54:06.156Z,100510.03
2018-03-29T18:56:33.865Z,100518.10
2018-03-29T18:59:02.166Z,100516.91
2018-03-29T19:01:31.224Z,100514.28
2018-03-29T19:03:59.882Z,100507.94
2018-03-29T19:06:27.667Z,100508.54
2018-03-29T19:08:55.465Z,100510.11
2018-03-29T19:11:23.287Z,100512.86
2018-03-29T19:13:50.989Z,100511.19
2018-03-29T19:16:18.599Z,100516.16
2018-03-29T19:18:47.022Z,100514.20
2018-03-29T19:21:14.718Z,100513.10
2018-03-29T19:23:43.905Z,100515.73
2018-03-29T19:26:12.531Z,100518.96
2018-03-29T19:28:41.850Z,100514.44
2018-03-29T19:31:09.897Z,100515.94
2018-03-29T19:33:37.497Z,100519.58
2018-03-29T19:36:05.093Z,100511.98
2018-03-29T19:38:32.732Z,100509.60
2018-03-29T19:41:00.290Z,100501.42
2018-03-29T19:43:27.886Z,100498.22
2018-03-29T19:45:55.598Z,100504.55
2018-03-29T19:48:24.564Z,100495.52
2018-03-29T19:50:57.646Z,100515.75
2018-03-29T19:53:25.589Z,100496.17
2018-03-29T19:55:53.816Z,100497.67
2018-03-29T19:58:22.141Z,100494.82
2018-03-29T20:00:50.526Z,100494.05
2018-03-29T20:03:18.796Z,100493.39
2018-03-29T20:05:46.471Z,100496.23
2018-03-29T20:08:14.333Z,100489.80
2018-03-29T20:10:42.429Z,100483.41
2018-03-29T20:13:10.082Z,100489.81
2018-03-29T20:15:37.682Z,100497.03
2018-03-29T20:18:05.792Z,100494.95
2018-03-29T20:20:33.925Z,100491.77
2018-03-29T20:23:02.223Z,100490.63
2018-03-29T20:25:29.882Z,100488.67
2018-03-29T20:27:57.585Z,100483.19
2018-03-29T20:30:25.659Z,100482.83
2018-03-29T20:32:53.330Z,100475.50
2018-03-29T20:35:20.970Z,100480.75
2018-03-29T20:37:49.486Z,100475.65
2018-03-29T20:40:17.160Z,100484.54
2018-03-29T20:42:44.894Z,100484.59
2018-03-29T20:45:13.216Z,100481.27
2018-03-29T20:47:40.826Z,100473.92
2018-03-29T20:50:09.063Z,100482.70
2018-03-29T20:52:36.919Z,100480.67
2018-03-29T20:55:04.583Z,100469.81
2018-03-29T20:57:32.278Z,100467.67
2018-03-29T21:00:00.384Z,100467.85
2018-03-29T21:02:28.188Z,100465.44
2018-03-29T21:04:56.691Z,100458.58
2018-03-29T21:07:25.014Z,100459.42
2018-03-29T21:09:53.093Z,100455.66
2018-03-29T21:12:20.853Z,100462.28
2018-03-29T21:14:48.676Z,100471.89
2018-03-29T21:17:17.278Z,100463.30
2018-03-29T21:19:45.558Z,100456.32
2018-03-29T21:22:14.166Z,100458.59
2018-03-29T21:24:44.803Z,100461.75
2018-03-29T21:27:13.116Z,100458.41
2018-03-29T21:29:43.197Z,100446.67
2018-03-29T21:32:12.893Z,100449.56
2018-03-29T21:34:40.657Z,100453.27
2018-03-29T21:37:08.357Z,100452.13
2018-03-29T21:39:36.116Z,100447.13
2018-03-29T21:42:03.770Z,100447.46
2018-03-29T21:44:31.468Z,100450.33
2018-03-29T21:46:59.105Z,100455.39
2018-03-29T21:49:27.232Z,100463.08
2018-03-29T21:51:57.728Z,100462.16
2018-03-29T21:54:25.462Z,100461.80
2018-03-29T21:56:53.362Z,100463.77
2018-03-29T21:59:22.671Z,100464.78
2018-03-29T22:01:51.004Z,100457.03
2018-03-29T22:04:19.247Z,100465.19
2018-03-29T22:06:46.956Z,100454.91
2018-03-29T22:09:14.668Z,100451.58
2018-03-29T22:11:42.716Z,100451.22
2018-03-29T22:14:10.438Z,100447.81
2018-03-29T22:16:38.913Z,100447.40
2018-03-29T22:19:07.043Z,100449.19
2018-03-29T22:21:35.931Z,100453.53
2018-03-29T22:24:04.245Z,100449.55
2018-03-29T22:26:31.926Z,100452.23
2018-03-29T22:29:00.358Z,100453.84
2018-03-29T22:31:28.029Z,100450.91
2018-03-29T22:33:55.699Z,100448.35
2018-03-29T22:36:23.524Z,100446.20
2018-03-29T22:38:51.118Z,100439.17
2018-03-29T22:41:18.718Z,100444.89
2018-03-29T22:43:46.482Z,100437.63
2018-03-29T22:46:14.245Z,100445.97
2018-03-29T22:48:42.899Z,100438.34
2018-03-29T22:51:11.111Z,100435.51
2018-03-29T22:53:39.213Z,100429.43
2018-03-29T22:56:06.877Z,100429.02
2018-03-29T22:58:35.145Z,100434.20
2018-03-29T23:01:03.423Z,100426.92
2018-03-29T23:03:31.506Z,100422.22
2018-03-29T23:05:59.140Z,100429.25
2018-03-29T23:08:26.718Z,100424.19
2018-03-29T23:10:54.703Z,100418.34
2018-03-29T23:13:23.387Z,100415.78
2018-03-29T23:15:50.996Z,100424.48
2018-03-29T23:18:19.356Z,100421.50
2018-03-29T23:20:46.948Z,100424.74
2018-03-29T23:23:15.334Z,100412.70
2018-03-29T23:25:45.670Z,100416.94
2018-03-29T23:28:13.840Z,100416.87
2018-03-29T23:30:42.301Z,100414.91
2018-03-29T23:33:09.881Z,100411.45
2018-03-29T23:35:37.561Z,100414.08
2018-03-29T23:38:05.279Z,100415.27
2018-03-29T23:40:32.901Z,100403.28
2018-03-29T23:43:00.533Z,100405.28
2018-03-29T23:45:28.192Z,100407.01
2018-03-29T23:47:55.858Z,100398.43
2018-03-29T23:50:24.880Z,100406.77
2018-03-29T23:52:52.539Z,100406.77
2018-03-29T23:55:20.175Z,100402.06
2018-03-29T23:57:47.833Z,100398.19
